Time;durP1;ratioP1;P1;durP2;ratioP2;P2;SDS_P1;SDS_P2;PMS_P1;PMS_P2;Temp;Humidity;BMP_temperature;BMP_pressure;BME280_temperature;BME280_humidity;BME280_pressure;Samples;Min_cycle;Max_cycle;Signal;HPM_P1;HPM_P2
2023/07/25 00:01:14;;;;;;;4.85;2.72;;;;;;;;;;5115106;28;20553;-79
2023/07/25 00:03:41;;;;;;;5.03;2.78;;;;;;;;;;5114689;28;20254;-78
2023/07/25 00:06:08;;;;;;;5.72;2.80;;;;;;;;;;5114646;28;20194;-79
2023/07/25 00:08:36;;;;;;;3.65;2.38;;;;;;;;;;5114890;28;20230;-78
2023/07/25 00:11:03;;;;;;;6.65;3.10;;;;;;;;;;5114840;28;20198;-78
2023/07/25 00:13:30;;;;;;;4.40;2.50;;;;;;;;;;5114806;27;20228;-79
2023/07/25 00:15:59;;;;;;;3.55;2.80;;;;;;;;;;5114780;28;20194;-79
2023/07/25 00:18:26;;;;;;;5.35;2.60;;;;;;;;;;5114351;28;20729;-78
2023/07/25 00:20:53;;;;;;;8.05;2.95;;;;;;;;;;5114349;28;20281;-79
2023/07/25 00:23:21;;;;;;;5.65;2.90;;;;;;;;;;5114316;28;20389;-79
2023/07/25 00:25:49;;;;;;;5.75;2.90;;;;;;;;;;5114246;28;20201;-79
2023/07/25 00:28:16;;;;;;;3.85;2.45;;;;;;;;;;5114439;28;20201;-79
2023/07/25 00:30:43;;;;;;;5.57;2.75;;;;;;;;;;5128207;27;20279;-79
2023/07/25 00:33:12;;;;;;;4.97;3.00;;;;;;;;;;5093924;28;20643;-79
2023/07/25 00:35:39;;;;;;;2.47;2.28;;;;;;;;;;5093718;28;20234;-79
2023/07/25 00:38:06;;;;;;;5.93;2.75;;;;;;;;;;5093295;28;20703;-79
2023/07/25 00:40:39;;;;;;;6.20;2.83;;;;;;;;;;5113335;27;20208;-79
2023/07/25 00:43:06;;;;;;;3.25;2.67;;;;;;;;;;5114447;27;20212;-79
2023/07/25 00:45:33;;;;;;;3.25;2.50;;;;;;;;;;5114268;27;20570;-79
2023/07/25 00:48:00;;;;;;;4.10;2.38;;;;;;;;;;5114084;28;20209;-79
2023/07/25 00:50:29;;;;;;;6.47;2.78;;;;;;;;;;5113871;28;20228;-79
2023/07/25 00:52:58;;;;;;;4.97;2.85;;;;;;;;;;5133984;27;20319;-78
2023/07/25 00:55:25;;;;;;;6.28;2.90;;;;;;;;;;5133805;27;20221;-79
2023/07/25 00:57:52;;;;;;;6.30;3.20;;;;;;;;;;5134817;27;20645;-79
2023/07/25 01:00:20;;;;;;;4.30;2.65;;;;;;;;;;5133874;27;20282;-79
2023/07/25 01:02:47;;;;;;;3.72;2.92;;;;;;;;;;5133665;27;20219;-79
2023/07/25 01:05:14;;;;;;;4.32;2.72;;;;;;;;;;5134360;27;20229;-79
2023/07/25 01:07:43;;;;;;;5.10;2.88;;;;;;;;;;5134134;27;20231;-79
2023/07/25 01:10:10;;;;;;;6.35;3.20;;;;;;;;;;5134120;27;20277;-78
2023/07/25 01:12:37;;;;;;;7.22;3.40;;;;;;;;;;5133602;27;20197;-79
2023/07/25 01:15:05;;;;;;;8.77;3.20;;;;;;;;;;5134298;27;20284;-79
2023/07/25 01:17:32;;;;;;;5.40;3.80;;;;;;;;;;5113924;27;20236;-78
2023/07/25 01:20:00;;;;;;;6.50;3.78;;;;;;;;;;5113241;28;20741;-79
2023/07/25 01:22:27;;;;;;;5.82;3.40;;;;;;;;;;5113044;28;20317;-78
2023/07/25 01:24:57;;;;;;;5.82;3.13;;;;;;;;;;5112843;28;20197;-79
2023/07/25 01:27:24;;;;;;;5.53;3.42;;;;;;;;;;5113199;28;20280;-79
2023/07/25 01:29:51;;;;;;;5.72;3.60;;;;;;;;;;5113396;28;20229;-79
2023/07/25 01:32:19;;;;;;;9.32;4.00;;;;;;;;;;5112532;28;20321;-79
2023/07/25 01:34:46;;;;;;;5.35;3.80;;;;;;;;;;5113527;28;20284;-79
2023/07/25 01:37:13;;;;;;;5.32;3.20;;;;;;;;;;5112732;28;20721;-78
2023/07/25 01:39:42;;;;;;;7.10;3.60;;;;;;;;;;5122749;27;20189;-79
2023/07/25 01:42:11;;;;;;;7.63;3.72;;;;;;;;;;5131656;27;20209;-79
2023/07/25 01:44:38;;;;;;;5.70;3.40;;;;;;;;;;5133415;27;20191;-78
2023/07/25 01:47:05;;;;;;;5.22;3.30;;;;;;;;;;5133505;27;20193;-79
2023/07/25 01:49:32;;;;;;;5.40;3.00;;;;;;;;;;5133072;27;20283;-78
2023/07/25 01:52:00;;;;;;;4.35;2.42;;;;;;;;;;5132980;27;20284;-78
2023/07/25 01:54:27;;;;;;;7.07;2.40;;;;;;;;;;5132376;27;20280;-79
2023/07/25 01:56:54;;;;;;;3.03;2.47;;;;;;;;;;5105774;27;20225;-79
2023/07/25 01:59:23;;;;;;;4.03;1.90;;;;;;;;;;5092638;28;20294;-79
2023/07/25 02:01:50;;;;;;;3.72;1.63;;;;;;;;;;5092365;28;20743;-78
2023/07/25 02:04:17;;;;;;;5.68;1.85;;;;;;;;;;5092213;28;20256;-79
2023/07/25 02:06:44;;;;;;;3.58;1.48;;;;;;;;;;5091657;28;20694;-78
2023/07/25 02:09:12;;;;;;;1.67;1.30;;;;;;;;;;5092249;28;20314;-79
2023/07/25 02:11:39;;;;;;;2.75;1.10;;;;;;;;;;5091849;28;20194;-79
2023/07/25 02:14:06;;;;;;;1.80;1.10;;;;;;;;;;5092287;28;20234;-78
2023/07/25 02:16:36;;;;;;;1.67;1.17;;;;;;;;;;5102259;28;20250;-78
2023/07/25 02:19:03;;;;;;;2.65;1.27;;;;;;;;;;5112258;28;20198;-78
2023/07/25 02:21:31;;;;;;;1.98;0.80;;;;;;;;;;5111814;28;20300;-78
2023/07/25 02:23:58;;;;;;;1.70;0.77;;;;;;;;;;5111987;28;20312;-79
2023/07/25 02:26:25;;;;;;;2.15;0.82;;;;;;;;;;5112123;28;20194;-79
2023/07/25 02:28:52;;;;;;;1.25;0.80;;;;;;;;;;5112287;28;20295;-79
2023/07/25 02:31:20;;;;;;;0.95;0.70;;;;;;;;;;5111771;28;20289;-79
2023/07/25 02:33:48;;;;;;;0.70;0.60;;;;;;;;;;5112078;28;20750;-79
2023/07/25 02:36:15;;;;;;;1.63;0.70;;;;;;;;;;5111600;28;20635;-78
2023/07/25 02:38:43;;;;;;;0.57;0.57;;;;;;;;;;5111976;28;20205;-78
2023/07/25 02:41:10;;;;;;;0.73;0.63;;;;;;;;;;5111944;28;20284;-79
2023/07/25 02:43:37;;;;;;;1.07;0.70;;;;;;;;;;5111442;28;20275;-79
2023/07/25 02:46:04;;;;;;;1.57;0.80;;;;;;;;;;5111545;28;20293;-78
2023/07/25 02:48:31;;;;;;;1.23;0.70;;;;;;;;;;5111559;28;20189;-79
2023/07/25 02:51:00;;;;;;;1.77;0.70;;;;;;;;;;5112336;28;20255;-78
2023/07/25 02:53:27;;;;;;;0.90;0.80;;;;;;;;;;5111767;28;20236;-79
2023/07/25 02:55:54;;;;;;;2.17;0.90;;;;;;;;;;5112005;28;20296;-78
2023/07/25 02:58:22;;;;;;;2.57;1.20;;;;;;;;;;5111832;28;20698;-78
2023/07/25 03:00:49;;;;;;;1.30;1.10;;;;;;;;;;5111164;28;20282;-79
2023/07/25 03:03:16;;;;;;;2.27;1.00;;;;;;;;;;5111821;28;20252;-78
2023/07/25 03:05:43;;;;;;;2.50;1.00;;;;;;;;;;5111669;28;20284;-78
2023/07/25 03:08:12;;;;;;;2.27;1.00;;;;;;;;;;5111479;28;20197;-78
2023/07/25 03:10:39;;;;;;;1.60;0.80;;;;;;;;;;5111561;28;20288;-78
2023/07/25 03:13:06;;;;;;;2.03;0.80;;;;;;;;;;5112024;28;20285;-77
2023/07/25 03:15:33;;;;;;;4.33;1.10;;;;;;;;;;5111463;28;20610;-78
2023/07/25 03:18:00;;;;;;;2.13;1.23;;;;;;;;;;5111553;28;20283;-78
2023/07/25 03:20:27;;;;;;;3.10;1.10;;;;;;;;;;5111751;28;20727;-79
2023/07/25 03:22:55;;;;;;;2.85;1.20;;;;;;;;;;5111856;28;20222;-78
2023/07/25 03:25:23;;;;;;;1.67;1.10;;;;;;;;;;5111543;28;20284;-78
2023/07/25 03:27:51;;;;;;;1.70;1.03;;;;;;;;;;5111429;28;20193;-78
2023/07/25 03:30:18;;;;;;;2.40;1.00;;;;;;;;;;5111614;28;20646;-79
2023/07/25 03:32:46;;;;;;;1.73;0.90;;;;;;;;;;5111036;28;20601;-79
2023/07/25 03:35:13;;;;;;;2.97;1.00;;;;;;;;;;5111526;28;20225;-79
2023/07/25 03:37:40;;;;;;;2.10;1.00;;;;;;;;;;5111063;28;20706;-78
2023/07/25 03:40:08;;;;;;;3.07;1.20;;;;;;;;;;5092658;28;20290;-78
2023/07/25 03:42:36;;;;;;;1.63;1.20;;;;;;;;;;5090487;28;20219;-78
2023/07/25 03:45:03;;;;;;;1.52;1.10;;;;;;;;;;5091058;28;20297;-77
2023/07/25 03:47:31;;;;;;;2.00;1.00;;;;;;;;;;5090863;28;20282;-78
2023/07/25 03:49:58;;;;;;;2.07;1.10;;;;;;;;;;5090735;28;20187;-79
2023/07/25 03:52:27;;;;;;;1.70;1.20;;;;;;;;;;5090676;28;20325;-78
2023/07/25 03:54:54;;;;;;;2.30;1.10;;;;;;;;;;5090648;28;20195;-79
2023/07/25 03:57:21;;;;;;;3.37;1.10;;;;;;;;;;5090987;28;20289;-77
2023/07/25 03:59:50;;;;;;;1.53;1.00;;;;;;;;;;5091339;28;20240;-79
2023/07/25 04:02:17;;;;;;;1.73;1.07;;;;;;;;;;5090868;28;20195;-79
2023/07/25 04:04:44;;;;;;;4.03;1.23;;;;;;;;;;5090589;28;20232;-78
2023/07/25 04:07:12;;;;;;;1.90;1.10;;;;;;;;;;5090652;28;20289;-79
2023/07/25 04:09:39;;;;;;;2.73;1.20;;;;;;;;;;5090771;28;20241;-79
2023/07/25 04:12:06;;;;;;;2.37;1.03;;;;;;;;;;5090254;28;20660;-79
2023/07/25 04:14:33;;;;;;;3.53;1.30;;;;;;;;;;5090834;28;20289;-79
2023/07/25 04:17:02;;;;;;;2.20;1.10;;;;;;;;;;5105061;28;20372;-78
2023/07/25 04:19:29;;;;;;;4.73;1.17;;;;;;;;;;5112251;28;20316;-79
2023/07/25 04:21:56;;;;;;;2.50;1.20;;;;;;;;;;5114898;28;20353;-78
2023/07/25 04:24:23;;;;;;;5.77;1.27;;;;;;;;;;5096077;28;20675;-78
2023/07/25 04:26:51;;;;;;;1.97;0.83;;;;;;;;;;5093670;28;20563;-79
2023/07/25 04:29:18;;;;;;;2.07;1.00;;;;;;;;;;5094647;28;20233;-77
2023/07/25 04:31:45;;;;;;;2.63;1.00;;;;;;;;;;5094330;28;20584;-77
2023/07/25 04:34:14;;;;;;;2.57;0.93;;;;;;;;;;5093912;28;20194;-79
2023/07/25 04:36:41;;;;;;;2.90;1.30;;;;;;;;;;5093774;28;20232;-79
2023/07/25 04:39:08;;;;;;;2.73;1.10;;;;;;;;;;5093990;28;20281;-79
2023/07/25 04:41:35;;;;;;;3.00;1.40;;;;;;;;;;5093345;28;20234;-79
2023/07/25 04:44:02;;;;;;;3.77;1.40;;;;;;;;;;5093778;28;20324;-79
2023/07/25 04:46:30;;;;;;;2.87;1.10;;;;;;;;;;5101639;28;20202;-80
2023/07/25 04:48:57;;;;;;;4.10;1.10;;;;;;;;;;5114169;28;20189;-80
2023/07/25 04:51:25;;;;;;;3.83;1.20;;;;;;;;;;5113846;28;20251;-79
2023/07/25 04:53:52;;;;;;;2.17;0.90;;;;;;;;;;5114233;28;20265;-79
2023/07/25 04:56:20;;;;;;;3.30;1.07;;;;;;;;;;5113533;28;20197;-77
2023/07/25 04:58:47;;;;;;;2.17;1.10;;;;;;;;;;5114047;28;20236;-79
2023/07/25 05:01:15;;;;;;;3.30;1.20;;;;;;;;;;5114129;28;20264;-79
2023/07/25 05:03:42;;;;;;;2.80;0.90;;;;;;;;;;5113413;28;20276;-79
2023/07/25 05:06:11;;;;;;;1.60;1.10;;;;;;;;;;5113434;28;20283;-79
2023/07/25 05:08:39;;;;;;;1.67;0.80;;;;;;;;;;5113771;28;20705;-81
2023/07/25 05:11:07;;;;;;;1.63;0.90;;;;;;;;;;5113514;28;20212;-80
2023/07/25 05:13:34;;;;;;;3.50;1.00;;;;;;;;;;5113618;28;20229;-79
2023/07/25 05:16:01;;;;;;;2.73;1.10;;;;;;;;;;5111904;28;20285;-79
2023/07/25 05:18:28;;;;;;;2.23;1.10;;;;;;;;;;5113400;28;20651;-79
2023/07/25 05:20:55;;;;;;;2.73;1.00;;;;;;;;;;5113234;28;20761;-79
2023/07/25 05:23:22;;;;;;;3.00;1.00;;;;;;;;;;5113013;28;20379;-79
2023/07/25 05:25:51;;;;;;;2.47;1.03;;;;;;;;;;5112985;28;20293;-79
2023/07/25 05:28:19;;;;;;;2.40;1.10;;;;;;;;;;5113103;28;20292;-81
2023/07/25 05:30:46;;;;;;;3.27;1.10;;;;;;;;;;5113448;28;20511;-80
2023/07/25 05:33:13;;;;;;;2.10;1.20;;;;;;;;;;5113489;28;20209;-79
2023/07/25 05:35:40;;;;;;;2.47;0.93;;;;;;;;;;5107591;27;20285;-80
2023/07/25 05:38:08;;;;;;;2.00;1.10;;;;;;;;;;5104165;28;20297;-78
2023/07/25 05:40:36;;;;;;;3.33;1.50;;;;;;;;;;5112893;28;20282;-80
2023/07/25 05:43:05;;;;;;;2.53;1.40;;;;;;;;;;5112888;28;20209;-80
2023/07/25 05:45:32;;;;;;;3.33;1.77;;;;;;;;;;5112775;28;20285;-80
2023/07/25 05:47:59;;;;;;;2.83;1.50;;;;;;;;;;5111701;28;20233;-81
2023/07/25 05:50:26;;;;;;;6.70;1.60;;;;;;;;;;5105596;28;20286;-81
2023/07/25 05:52:54;;;;;;;4.20;1.80;;;;;;;;;;5111968;28;20329;-80
2023/07/25 05:55:21;;;;;;;3.60;1.80;;;;;;;;;;5112449;28;20300;-81
2023/07/25 05:57:48;;;;;;;3.13;1.60;;;;;;;;;;5112981;28;20233;-80
2023/07/25 06:00:17;;;;;;;4.00;1.97;;;;;;;;;;5112622;28;20638;-80
2023/07/25 06:02:44;;;;;;;4.27;1.63;;;;;;;;;;5114768;27;20194;-80
2023/07/25 06:05:12;;;;;;;4.03;2.10;;;;;;;;;;5116188;28;20248;-80
2023/07/25 06:07:39;;;;;;;2.57;1.70;;;;;;;;;;5113337;27;20225;-79
2023/07/25 06:10:07;;;;;;;5.97;1.93;;;;;;;;;;5113641;27;20225;-79
2023/07/25 06:12:34;;;;;;;2.73;1.80;;;;;;;;;;5092668;28;20717;-80
2023/07/25 06:15:01;;;;;;;4.90;1.67;;;;;;;;;;5092324;28;20226;-80
2023/07/25 06:17:30;;;;;;;4.00;1.77;;;;;;;;;;5119630;27;20297;-81
2023/07/25 06:19:57;;;;;;;4.30;1.87;;;;;;;;;;5131156;27;20276;-81
2023/07/25 06:22:24;;;;;;;6.17;2.33;;;;;;;;;;5132318;27;20841;-80
2023/07/25 06:24:52;;;;;;;4.57;1.53;;;;;;;;;;5131172;27;20272;-80
2023/07/25 06:27:19;;;;;;;3.87;1.70;;;;;;;;;;5091664;28;20289;-80
2023/07/25 06:29:46;;;;;;;6.37;1.80;;;;;;;;;;5106914;28;20194;-81
2023/07/25 06:32:13;;;;;;;6.55;1.85;;;;;;;;;;5118546;27;20202;-78
2023/07/25 06:34:42;;;;;;;4.67;1.50;;;;;;;;;;5115963;27;20221;-82
2023/07/25 06:37:09;;;;;;;5.90;1.90;;;;;;;;;;5121095;27;20276;-81
2023/07/25 06:39:36;;;;;;;5.53;2.10;;;;;;;;;;5111440;27;20288;-79
2023/07/25 06:42:04;;;;;;;6.80;2.00;;;;;;;;;;5130730;27;20189;-81
2023/07/25 06:44:32;;;;;;;4.97;1.70;;;;;;;;;;5119992;27;20308;-80
2023/07/25 06:46:59;;;;;;;3.40;1.95;;;;;;;;;;5112431;28;20364;-80
2023/07/25 06:49:26;;;;;;;3.28;1.73;;;;;;;;;;5111679;28;20638;-80
2023/07/25 06:51:55;;;;;;;6.28;2.13;;;;;;;;;;5111910;28;20250;-80
2023/07/25 06:54:22;;;;;;;7.75;1.88;;;;;;;;;;5111528;28;20238;-80
2023/07/25 06:56:49;;;;;;;3.05;1.88;;;;;;;;;;5111844;28;20214;-80
2023/07/25 06:59:17;;;;;;;4.30;2.15;;;;;;;;;;5118925;27;20255;-80
2023/07/25 07:01:44;;;;;;;7.40;2.00;;;;;;;;;;5121220;27;20284;-80
2023/07/25 07:04:11;;;;;;;6.03;2.13;;;;;;;;;;5111620;28;20315;-79
2023/07/25 07:06:38;;;;;;;6.35;2.05;;;;;;;;;;5111487;28;20288;-79
2023/07/25 07:09:07;;;;;;;2.85;2.05;;;;;;;;;;5112017;28;20281;-79
2023/07/25 07:11:34;;;;;;;4.10;2.20;;;;;;;;;;5111824;28;20293;-80
2023/07/25 07:14:01;;;;;;;3.40;1.92;;;;;;;;;;5111873;28;20193;-80
2023/07/25 07:16:28;;;;;;;4.47;2.20;;;;;;;;;;5125109;28;20291;-80
2023/07/25 07:18:55;;;;;;;5.13;2.00;;;;;;;;;;5132311;27;20312;-80
2023/07/25 07:21:22;;;;;;;3.08;1.85;;;;;;;;;;5132185;27;20276;-81
2023/07/25 07:23:50;;;;;;;4.82;1.98;;;;;;;;;;5132517;27;20221;-80
2023/07/25 07:26:18;;;;;;;4.40;1.88;;;;;;;;;;5132216;27;20224;-80
2023/07/25 07:28:46;;;;;;;6.35;2.03;;;;;;;;;;5132144;27;20280;-80
2023/07/25 07:31:13;;;;;;;3.95;1.77;;;;;;;;;;5132746;27;20211;-80
2023/07/25 07:33:40;;;;;;;2.75;1.67;;;;;;;;;;5132404;27;20208;-80
2023/07/25 07:36:07;;;;;;;6.53;1.95;;;;;;;;;;5132308;27;20193;-80
2023/07/25 07:38:35;;;;;;;4.10;1.70;;;;;;;;;;5132047;27;20284;-79
2023/07/25 07:41:02;;;;;;;4.88;1.67;;;;;;;;;;5132148;27;20292;-80
2023/07/25 07:43:30;;;;;;;6.88;2.08;;;;;;;;;;5131997;27;20745;-80
2023/07/25 07:45:58;;;;;;;6.65;1.85;;;;;;;;;;5132039;27;20221;-80
2023/07/25 07:48:25;;;;;;;4.32;2.00;;;;;;;;;;5132446;27;20193;-81
2023/07/25 07:50:53;;;;;;;4.15;1.63;;;;;;;;;;5131405;27;20235;-80
2023/07/25 07:53:20;;;;;;;3.33;1.52;;;;;;;;;;5134087;27;20324;-78
2023/07/25 07:55:47;;;;;;;6.63;1.88;;;;;;;;;;5136207;27;20193;-79
2023/07/25 07:58:14;;;;;;;8.15;1.73;;;;;;;;;;5136269;27;20199;-78
2023/07/25 08:00:43;;;;;;;3.83;1.77;;;;;;;;;;5135983;27;20280;-78
2023/07/25 08:03:10;;;;;;;7.30;1.77;;;;;;;;;;5135336;27;20288;-80
2023/07/25 08:05:37;;;;;;;3.15;1.50;;;;;;;;;;5135806;27;20319;-80
2023/07/25 08:08:05;;;;;;;3.28;1.60;;;;;;;;;;5135479;27;20225;-78
2023/07/25 08:10:32;;;;;;;5.35;1.90;;;;;;;;;;5135361;27;20200;-79
2023/07/25 08:12:59;;;;;;;2.42;1.30;;;;;;;;;;5135630;27;20193;-79
2023/07/25 08:15:26;;;;;;;6.32;1.90;;;;;;;;;;5134063;27;20288;-79
2023/07/25 08:17:55;;;;;;;3.53;1.88;;;;;;;;;;5114664;28;20281;-78
2023/07/25 08:20:22;;;;;;;2.85;1.80;;;;;;;;;;5114829;28;20194;-78
2023/07/25 08:22:49;;;;;;;3.83;2.13;;;;;;;;;;5114669;28;20204;-80
2023/07/25 08:25:16;;;;;;;3.83;2.10;;;;;;;;;;5114457;28;20329;-79
2023/07/25 08:27:44;;;;;;;3.63;1.67;;;;;;;;;;5115318;28;20198;-79
2023/07/25 08:30:11;;;;;;;3.67;1.80;;;;;;;;;;5114756;28;20189;-78
2023/07/25 08:32:38;;;;;;;6.13;1.95;;;;;;;;;;5114491;28;20198;-78
2023/07/25 08:35:07;;;;;;;3.30;1.90;;;;;;;;;;5114436;28;20200;-78
2023/07/25 08:37:34;;;;;;;4.82;2.38;;;;;;;;;;5114728;28;20289;-78
2023/07/25 08:40:02;;;;;;;12.20;2.60;;;;;;;;;;5114364;28;20285;-78
2023/07/25 08:42:31;;;;;;;4.50;2.60;;;;;;;;;;5114476;28;20197;-78
2023/07/25 08:44:59;;;;;;;6.88;3.20;;;;;;;;;;5114363;28;20674;-80
2023/07/25 08:47:28;;;;;;;5.53;2.58;;;;;;;;;;5113885;28;20293;-79
2023/07/25 08:49:57;;;;;;;5.30;1.80;;;;;;;;;;5114505;28;20246;-80
2023/07/25 08:52:27;;;;;;;3.03;1.70;;;;;;;;;;5114294;28;20316;-80
2023/07/25 08:54:55;;;;;;;4.13;1.60;;;;;;;;;;5113800;28;20580;-79
2023/07/25 08:57:22;;;;;;;10.30;2.15;;;;;;;;;;5114529;28;20294;-81
2023/07/25 08:59:50;;;;;;;20.83;4.15;;;;;;;;;;5114342;28;20225;-80
2023/07/25 09:02:18;;;;;;;4.80;2.08;;;;;;;;;;5113724;28;20208;-80
2023/07/25 09:04:46;;;;;;;5.97;2.40;;;;;;;;;;5112243;28;20344;-79
2023/07/25 09:07:13;;;;;;;3.70;1.98;;;;;;;;;;5113806;28;20204;-80
2023/07/25 09:09:42;;;;;;;3.75;1.90;;;;;;;;;;5113989;28;20214;-79
2023/07/25 09:12:10;;;;;;;10.55;2.40;;;;;;;;;;5113741;28;20196;-80
2023/07/25 09:14:38;;;;;;;1.92;1.67;;;;;;;;;;5113980;28;20204;-80
2023/07/25 09:17:06;;;;;;;2.33;1.40;;;;;;;;;;5110589;28;20296;-80
2023/07/25 09:19:33;;;;;;;2.15;1.75;;;;;;;;;;5113431;28;20197;-80
2023/07/25 09:22:01;;;;;;;2.22;1.42;;;;;;;;;;5113158;28;20202;-80
2023/07/25 09:24:36;;;;;;;1.95;1.42;;;;;;;;;;5113426;28;20229;-79
2023/07/25 09:27:05;;;;;;;2.63;1.58;;;;;;;;;;5109009;28;20189;-81
2023/07/25 09:29:32;;;;;;;2.95;1.77;;;;;;;;;;5113197;28;20193;-81
2023/07/25 09:31:59;;;;;;;4.22;1.60;;;;;;;;;;5112362;28;20633;-80
2023/07/25 09:34:26;;;;;;;2.88;1.83;;;;;;;;;;5101418;28;20312;-80
2023/07/25 09:36:54;;;;;;;1.85;1.50;;;;;;;;;;5114441;28;20198;-77
2023/07/25 09:39:21;;;;;;;2.42;1.50;;;;;;;;;;5111177;28;20290;-78
2023/07/25 09:41:51;;;;;;;4.28;1.75;;;;;;;;;;5108918;28;20222;-79
2023/07/25 09:44:20;;;;;;;2.70;1.70;;;;;;;;;;5116650;28;20213;-79
2023/07/25 09:46:52;;;;;;;3.80;2.03;;;;;;;;;;5101387;28;20186;-78
2023/07/25 09:49:21;;;;;;;3.65;1.73;;;;;;;;;;5116425;28;20737;-80
2023/07/25 09:51:58;;;;;;;4.30;2.00;;;;;;;;;;5109760;28;20225;-80
2023/07/25 09:54:25;;;;;;;3.72;2.10;;;;;;;;;;5110351;28;20201;-80
2023/07/25 09:56:53;;;;;;;5.22;2.10;;;;;;;;;;5092240;28;20218;-79
2023/07/25 09:59:22;;;;;;;5.38;2.28;;;;;;;;;;5104369;28;20226;-79
2023/07/25 10:01:49;;;;;;;5.00;2.30;;;;;;;;;;5112849;28;20263;-79
2023/07/25 10:04:16;;;;;;;4.57;2.28;;;;;;;;;;5112370;28;20281;-79
2023/07/25 10:06:44;;;;;;;3.10;2.33;;;;;;;;;;5104993;28;20228;-79
2023/07/25 10:09:13;;;;;;;4.35;2.00;;;;;;;;;;5092314;28;20652;-81
2023/07/25 10:11:41;;;;;;;5.25;1.88;;;;;;;;;;5101402;28;20193;-79
2023/07/25 10:14:09;;;;;;;3.08;1.63;;;;;;;;;;5110968;28;20263;-79
2023/07/25 10:16:38;;;;;;;2.22;1.67;;;;;;;;;;5103457;28;20592;-78
2023/07/25 10:19:06;;;;;;;4.28;1.88;;;;;;;;;;5112067;28;20251;-78
2023/07/25 10:21:47;;;;;;;10.43;2.30;;;;;;;;;;5106397;28;20232;-79
2023/07/25 10:24:14;;;;;;;6.10;2.42;;;;;;;;;;5100784;28;20237;-77
2023/07/25 10:26:53;;;;;;;5.40;2.60;;;;;;;;;;5108328;28;20252;-78
2023/07/25 10:29:35;;;;;;;6.13;2.70;;;;;;;;;;5111462;28;20208;-78
2023/07/25 10:32:03;;;;;;;3.22;2.30;;;;;;;;;;5111527;28;20284;-78
2023/07/25 10:34:44;;;;;;;4.28;2.25;;;;;;;;;;5110873;28;20749;-78
2023/07/25 10:37:21;;;;;;;3.25;2.10;;;;;;;;;;5111835;28;20193;-78
2023/07/25 10:39:48;;;;;;;2.45;1.67;;;;;;;;;;5111868;28;20724;-79
2023/07/25 10:42:16;;;;;;;2.17;1.50;;;;;;;;;;5111297;28;20202;-77
2023/07/25 10:44:43;;;;;;;2.13;1.30;;;;;;;;;;5111244;28;20558;-78
2023/07/25 10:47:25;;;;;;;2.17;1.42;;;;;;;;;;5107632;28;20229;-78
2023/07/25 10:49:57;;;;;;;2.92;1.42;;;;;;;;;;5108333;28;20292;-77
2023/07/25 10:52:39;;;;;;;2.05;1.33;;;;;;;;;;5111150;28;20662;-78
2023/07/25 10:55:06;;;;;;;2.80;1.40;;;;;;;;;;5110999;28;20279;-78
2023/07/25 10:57:34;;;;;;;4.15;1.50;;;;;;;;;;5110023;28;20228;-78
2023/07/25 11:00:04;;;;;;;1.92;1.45;;;;;;;;;;5111455;28;20190;-78
2023/07/25 11:02:32;;;;;;;2.00;1.60;;;;;;;;;;5111372;28;20186;-78
2023/07/25 11:05:18;;;;;;;3.67;1.67;;;;;;;;;;5106402;28;20314;-78
2023/07/25 11:07:51;;;;;;;5.30;1.80;;;;;;;;;;5111153;28;20662;-78
2023/07/25 11:10:22;;;;;;;1.48;1.38;;;;;;;;;;5111119;28;20197;-77
2023/07/25 11:12:52;;;;;;;2.97;1.52;;;;;;;;;;5111263;28;20229;-78
2023/07/25 11:15:20;;;;;;;3.42;1.20;;;;;;;;;;5111196;28;20197;-78
2023/07/25 11:17:48;;;;;;;2.55;1.40;;;;;;;;;;5111021;28;20207;-78
2023/07/25 11:20:16;;;;;;;1.88;1.20;;;;;;;;;;5111070;28;20757;-78
2023/07/25 11:22:43;;;;;;;1.30;1.15;;;;;;;;;;5111526;28;20722;-78
2023/07/25 11:25:12;;;;;;;5.90;1.92;;;;;;;;;;5102232;28;20249;-79
2023/07/25 11:27:42;;;;;;;2.38;1.30;;;;;;;;;;5094408;28;20205;-78
2023/07/25 11:30:11;;;;;;;2.42;1.70;;;;;;;;;;5107448;28;20194;-78
2023/07/25 11:32:38;;;;;;;3.78;1.75;;;;;;;;;;5116176;28;20194;-78
2023/07/25 11:35:06;;;;;;;4.57;1.50;;;;;;;;;;5115946;28;20288;-79
2023/07/25 11:37:34;;;;;;;3.38;1.70;;;;;;;;;;5115491;28;20198;-79
2023/07/25 11:40:12;;;;;;;4.32;1.50;;;;;;;;;;5115646;28;20289;-78
2023/07/25 11:42:40;;;;;;;2.55;1.58;;;;;;;;;;5115078;28;20233;-78
2023/07/25 11:45:09;;;;;;;4.85;1.90;;;;;;;;;;5115301;28;20197;-78
2023/07/25 11:47:36;;;;;;;4.75;1.98;;;;;;;;;;5115209;28;20198;-79
2023/07/25 11:50:05;;;;;;;6.07;2.13;;;;;;;;;;5115636;28;20206;-79
2023/07/25 11:52:33;;;;;;;6.38;2.33;;;;;;;;;;5115249;28;20237;-78
2023/07/25 11:55:00;;;;;;;5.55;2.38;;;;;;;;;;5115103;28;20253;-79
2023/07/25 11:57:29;;;;;;;8.30;2.50;;;;;;;;;;5115309;28;20232;-78
2023/07/25 11:59:56;;;;;;;3.58;1.95;;;;;;;;;;5115205;28;20237;-78
2023/07/25 12:02:24;;;;;;;4.95;2.03;;;;;;;;;;5114900;28;20658;-78
2023/07/25 12:04:52;;;;;;;5.57;2.40;;;;;;;;;;5109984;28;20225;-78
2023/07/25 12:07:19;;;;;;;3.20;1.73;;;;;;;;;;5109639;28;20320;-77
2023/07/25 12:09:51;;;;;;;4.72;1.95;;;;;;;;;;5112746;28;20274;-77
2023/07/25 12:12:18;;;;;;;5.53;1.80;;;;;;;;;;5113881;27;20221;-78
2023/07/25 12:14:55;;;;;;;2.80;1.38;;;;;;;;;;5115261;27;20293;-77
2023/07/25 12:17:22;;;;;;;7.30;1.60;;;;;;;;;;5111856;27;20280;-79
2023/07/25 12:19:53;;;;;;;2.60;1.38;;;;;;;;;;5113794;28;20228;-78
2023/07/25 12:22:20;;;;;;;5.32;1.77;;;;;;;;;;5112368;28;20194;-77
2023/07/25 12:24:47;;;;;;;3.00;1.50;;;;;;;;;;5105067;28;20627;-79
2023/07/25 12:27:18;;;;;;;5.70;1.50;;;;;;;;;;5109741;28;20227;-79
2023/07/25 12:29:45;;;;;;;4.18;1.60;;;;;;;;;;5112995;28;20292;-78
2023/07/25 12:32:14;;;;;;;2.22;1.40;;;;;;;;;;5114425;28;20239;-78
2023/07/25 12:34:41;;;;;;;2.38;1.48;;;;;;;;;;5114327;28;20217;-79
2023/07/25 12:37:09;;;;;;;3.80;1.20;;;;;;;;;;5114638;28;20220;-78
2023/07/25 12:39:36;;;;;;;6.43;1.75;;;;;;;;;;5113215;28;20281;-78
2023/07/25 12:42:03;;;;;;;3.60;1.40;;;;;;;;;;5112866;28;20186;-78
2023/07/25 12:44:30;;;;;;;2.30;1.45;;;;;;;;;;5112537;28;20725;-78
2023/07/25 12:46:57;;;;;;;2.70;1.08;;;;;;;;;;5110624;28;20226;-78
2023/07/25 12:49:27;;;;;;;2.70;1.15;;;;;;;;;;5105347;28;20255;-78
2023/07/25 12:51:54;;;;;;;2.05;1.23;;;;;;;;;;5114394;28;20288;-78
2023/07/25 12:54:21;;;;;;;1.95;1.00;;;;;;;;;;5113148;28;20234;-79
2023/07/25 12:56:48;;;;;;;3.63;1.38;;;;;;;;;;5113663;28;20727;-78
2023/07/25 12:59:16;;;;;;;3.47;1.30;;;;;;;;;;5112468;28;20285;-78
2023/07/25 13:01:43;;;;;;;2.47;1.20;;;;;;;;;;5114461;27;20641;-78
2023/07/25 13:04:10;;;;;;;3.65;1.30;;;;;;;;;;5104299;28;20202;-79
2023/07/25 13:06:39;;;;;;;2.22;1.10;;;;;;;;;;5110921;28;20252;-79
2023/07/25 13:09:06;;;;;;;3.70;1.15;;;;;;;;;;5112418;27;20196;-78
2023/07/25 13:11:34;;;;;;;3.72;1.35;;;;;;;;;;5114619;27;20236;-79
2023/07/25 13:14:01;;;;;;;4.00;1.38;;;;;;;;;;5114536;27;20289;-78
2023/07/25 13:16:28;;;;;;;4.10;1.50;;;;;;;;;;5117236;27;20285;-78
2023/07/25 13:18:56;;;;;;;3.63;1.88;;;;;;;;;;5111458;27;20201;-78
2023/07/25 13:21:23;;;;;;;3.03;1.20;;;;;;;;;;5118321;27;20285;-78
2023/07/25 13:23:51;;;;;;;1.85;1.23;;;;;;;;;;5120974;27;20772;-78
2023/07/25 13:26:19;;;;;;;1.90;1.25;;;;;;;;;;5114851;27;20312;-78
2023/07/25 13:28:46;;;;;;;4.85;1.60;;;;;;;;;;5115320;27;20198;-78
2023/07/25 13:31:13;;;;;;;3.53;1.60;;;;;;;;;;5113798;28;20263;-78
2023/07/25 13:33:40;;;;;;;2.50;1.20;;;;;;;;;;5114572;28;20277;-79
2023/07/25 13:36:07;;;;;;;2.72;1.50;;;;;;;;;;5113885;28;20277;-79
2023/07/25 13:38:34;;;;;;;2.58;1.25;;;;;;;;;;5115042;27;20299;-78
2023/07/25 13:41:03;;;;;;;10.63;2.13;;;;;;;;;;5114991;27;20220;-78
2023/07/25 13:43:30;;;;;;;9.27;2.13;;;;;;;;;;5119053;27;20197;-77
2023/07/25 13:45:57;;;;;;;3.65;1.70;;;;;;;;;;5133844;27;20323;-78
2023/07/25 13:48:25;;;;;;;5.82;1.58;;;;;;;;;;5125030;27;20635;-78
2023/07/25 13:50:52;;;;;;;3.13;1.38;;;;;;;;;;5113093;27;20280;-78
2023/07/25 13:53:19;;;;;;;3.25;1.33;;;;;;;;;;5115726;27;20677;-78
2023/07/25 13:55:46;;;;;;;1.85;1.27;;;;;;;;;;5120099;27;20193;-78
2023/07/25 13:58:15;;;;;;;2.85;1.25;;;;;;;;;;5117095;27;20206;-78
2023/07/25 14:00:42;;;;;;;1.77;1.15;;;;;;;;;;5113716;27;20259;-77
2023/07/25 14:03:09;;;;;;;2.35;1.33;;;;;;;;;;5111734;28;20194;-78
2023/07/25 14:05:37;;;;;;;4.28;1.55;;;;;;;;;;5112140;27;20229;-78
2023/07/25 14:08:07;;;;;;;1.67;1.40;;;;;;;;;;5110616;27;20237;-78
2023/07/25 14:10:34;;;;;;;2.58;1.33;;;;;;;;;;5111485;28;20198;-78
2023/07/25 14:13:01;;;;;;;2.50;1.38;;;;;;;;;;5116668;27;20230;-79
2023/07/25 14:15:30;;;;;;;3.97;1.40;;;;;;;;;;5110575;28;20194;-78
2023/07/25 14:17:57;;;;;;;2.25;1.42;;;;;;;;;;5113982;27;20193;-78
2023/07/25 14:20:25;;;;;;;1.75;1.48;;;;;;;;;;5113550;27;20218;-78
2023/07/25 14:22:53;;;;;;;3.42;1.40;;;;;;;;;;5117860;27;20241;-79
2023/07/25 14:25:20;;;;;;;2.63;1.20;;;;;;;;;;5120598;27;20255;-79
2023/07/25 14:27:48;;;;;;;3.22;1.42;;;;;;;;;;5111724;28;20257;-79
2023/07/25 14:30:15;;;;;;;2.00;1.10;;;;;;;;;;5110029;28;20237;-78
2023/07/25 14:32:44;;;;;;;4.53;1.60;;;;;;;;;;5110027;27;20229;-78
2023/07/25 14:35:11;;;;;;;2.67;1.40;;;;;;;;;;5112001;28;20277;-79
2023/07/25 14:37:38;;;;;;;2.30;1.30;;;;;;;;;;5111211;28;20288;-79
2023/07/25 14:40:06;;;;;;;3.92;1.50;;;;;;;;;;5109819;28;20289;-78
2023/07/25 14:42:33;;;;;;;1.33;1.15;;;;;;;;;;5108223;28;20198;-78
2023/07/25 14:45:01;;;;;;;2.08;1.40;;;;;;;;;;5105626;28;20714;-79
2023/07/25 14:47:28;;;;;;;2.60;1.45;;;;;;;;;;5112206;28;20656;-79